aviador You're here:

KMHT Decoded Metar

MANCHESTER in NH, USA
Report Time2017-09-23 19:53:00
UTC Time2017-09-23 20:01:52
Flight Rules vfr VFR
Wind020° at 07 kt
W.Decomp.*RWY 06: 6.4 kt HW 2.8 kt LCW
RWY 35: 4.9 kt HW 5.0 kt RCW
W.Rank020° ranks 17
Current wind is above 020° avg. (6.1)
Visibility9999 m
Phenomena:N/A
Clouds:Few 250 Hf
Expected CloudBase > 6,400 ft AGL from Temp-Dew spread
CeilingNone
Temp29°C (ISA +15)
Dew Point13°C (37% RH)
Heat Index28.4°C
AAT27.4°C
QNH1016 hPa
Density Alt2,037 ft
Elevation266 ft
Report Wrong Elevation
Raw Report
METAR KMHT 231953Z 02007KT 340V040 10SM FEW250 29/13 A2999 RMK AO2
SLP165 T02940128=

Extra information for KMHT:More info

Metar Taf Metar & Taf Last 4 Metars F.Rules Stats Wind Profile Meteogram Temp Stats Airport Information Weather charts Add Link Nearby VenuesMetar ALERT Operation Metar Decoded Social comments

AIRNAV info for KMHT